Time;durP1;ratioP1;P1;durP2;ratioP2;P2;SDS_P1;SDS_P2;PMS_P1;PMS_P2;Temp;Humidity;BMP_temperature;BMP_pressure;BME280_temperature;BME280_humidity;BME280_pressure;Samples;Min_cycle;Max_cycle;Signal;HPM_P1;HPM_P2
2022/04/27 00:01:00;;;;;;;129.53;26.07;;;;;;;;;;4954969;28;21187;-71
2022/04/27 00:03:26;;;;;;;126.07;24.37;;;;;;;;;;4955693;28;20206;-71
2022/04/27 00:05:52;;;;;;;98.47;19.57;;;;;;;;;;4961986;28;20214;-71
2022/04/27 00:08:18;;;;;;;101.40;20.50;;;;;;;;;;4956465;28;20214;-71
2022/04/27 00:10:44;;;;;;;124.83;25.13;;;;;;;;;;4959771;28;20221;-71
2022/04/27 00:13:15;;;;;;;132.13;28.63;;;;;;;;;;4939766;28;20231;-71
2022/04/27 00:15:41;;;;;;;108.17;21.37;;;;;;;;;;4954678;28;20221;-71
2022/04/27 00:18:07;;;;;;;172.63;34.47;;;;;;;;;;4960151;28;20191;-71
2022/04/27 00:20:33;;;;;;;101.73;20.17;;;;;;;;;;4955005;28;20241;-71
2022/04/27 00:22:59;;;;;;;157.80;33.80;;;;;;;;;;4956400;28;20225;-71
2022/04/27 00:25:25;;;;;;;81.00;16.23;;;;;;;;;;4960008;28;20221;-71
2022/04/27 00:27:51;;;;;;;111.70;21.47;;;;;;;;;;4955695;28;20296;-71
2022/04/27 00:30:17;;;;;;;57.63;11.93;;;;;;;;;;4957394;28;20838;-71
2022/04/27 00:32:43;;;;;;;101.97;19.97;;;;;;;;;;4957631;28;20210;-71
2022/04/27 00:35:09;;;;;;;174.23;34.20;;;;;;;;;;4952165;28;20225;-71
2022/04/27 00:37:35;;;;;;;91.67;18.07;;;;;;;;;;4953792;28;20214;-71
2022/04/27 00:40:01;;;;;;;141.33;27.10;;;;;;;;;;4955036;28;20224;-71
2022/04/27 00:42:27;;;;;;;95.13;18.67;;;;;;;;;;4953901;28;20210;-71
2022/04/27 00:44:53;;;;;;;89.20;17.73;;;;;;;;;;4958469;28;20186;-71
2022/04/27 00:47:19;;;;;;;71.67;14.10;;;;;;;;;;4956981;28;20293;-71
2022/04/27 00:49:49;;;;;;;140.77;26.23;;;;;;;;;;4955341;28;20222;-71
2022/04/27 00:52:16;;;;;;;93.57;17.87;;;;;;;;;;4935090;28;20256;-71
2022/04/27 00:54:42;;;;;;;134.17;24.83;;;;;;;;;;4957624;28;21894;-71
2022/04/27 00:57:09;;;;;;;136.83;27.83;;;;;;;;;;4954455;28;20242;-71
2022/04/27 00:59:35;;;;;;;80.70;15.50;;;;;;;;;;4952881;28;21655;-71
2022/04/27 01:02:02;;;;;;;198.40;42.30;;;;;;;;;;4951477;28;20325;-71
2022/04/27 01:04:28;;;;;;;65.83;12.77;;;;;;;;;;4956350;28;20216;-71
2022/04/27 01:06:54;;;;;;;70.47;13.53;;;;;;;;;;4941376;28;20237;-71
2022/04/27 01:09:20;;;;;;;73.33;14.30;;;;;;;;;;4961866;28;20225;-71
2022/04/27 01:11:47;;;;;;;88.47;16.43;;;;;;;;;;4957106;28;20210;-71
2022/04/27 01:14:12;;;;;;;106.03;18.50;;;;;;;;;;4954977;28;21030;-71
2022/04/27 01:16:38;;;;;;;135.17;23.93;;;;;;;;;;4956568;28;20230;-71
2022/04/27 01:19:05;;;;;;;160.50;30.47;;;;;;;;;;4952746;28;20710;-71
2022/04/27 01:21:31;;;;;;;89.03;15.87;;;;;;;;;;4955408;28;20202;-71
2022/04/27 01:23:57;;;;;;;149.30;27.83;;;;;;;;;;4952563;28;20201;-71
2022/04/27 01:26:23;;;;;;;93.70;16.97;;;;;;;;;;4958056;28;20214;-71
2022/04/27 01:28:49;;;;;;;98.80;18.60;;;;;;;;;;4954849;28;21860;-71
2022/04/27 01:31:15;;;;;;;85.10;15.93;;;;;;;;;;4955824;28;20227;-71
2022/04/27 01:33:41;;;;;;;84.17;15.43;;;;;;;;;;4954520;28;20210;-70
2022/04/27 01:36:08;;;;;;;135.07;24.47;;;;;;;;;;4958259;28;20194;-70
2022/04/27 01:38:35;;;;;;;135.40;23.53;;;;;;;;;;4960980;28;20560;-70
2022/04/27 01:41:02;;;;;;;192.07;35.07;;;;;;;;;;4939980;28;20228;-71
2022/04/27 01:43:29;;;;;;;118.57;21.10;;;;;;;;;;4955758;28;20222;-70
2022/04/27 01:45:55;;;;;;;102.70;18.57;;;;;;;;;;4953924;28;20229;-70
2022/04/27 01:48:21;;;;;;;77.70;14.37;;;;;;;;;;4955236;28;20277;-70
2022/04/27 01:50:47;;;;;;;105.47;18.73;;;;;;;;;;4955972;28;20260;-70
2022/04/27 01:55:58;;;;;;;108.43;21.40;;;;;;;;;;4956160;28;20217;-70
2022/04/27 01:58:24;;;;;;;73.63;13.57;;;;;;;;;;4935516;28;20222;-70
2022/04/27 02:00:50;;;;;;;131.87;23.03;;;;;;;;;;4952541;28;20217;-70
2022/04/27 02:03:18;;;;;;;114.07;20.50;;;;;;;;;;4955501;28;20194;-70
2022/04/27 02:05:44;;;;;;;102.93;18.40;;;;;;;;;;4953690;28;20209;-70
2022/04/27 02:08:10;;;;;;;130.77;23.20;;;;;;;;;;4955047;28;20715;-70
2022/04/27 02:10:36;;;;;;;121.93;21.73;;;;;;;;;;4956150;28;20221;-70
2022/04/27 02:13:03;;;;;;;171.37;31.47;;;;;;;;;;4952940;28;20218;-70
2022/04/27 02:15:29;;;;;;;83.83;15.90;;;;;;;;;;4959402;28;20187;-70
2022/04/27 02:17:56;;;;;;;112.07;20.43;;;;;;;;;;4957839;28;20205;-70
2022/04/27 02:20:23;;;;;;;109.27;19.03;;;;;;;;;;4953999;28;20249;-70
2022/04/27 02:22:49;;;;;;;108.47;19.83;;;;;;;;;;4933441;28;20222;-70
2022/04/27 02:25:15;;;;;;;130.83;22.87;;;;;;;;;;4958717;28;20221;-70
2022/04/27 02:27:43;;;;;;;98.27;18.20;;;;;;;;;;4960683;28;20225;-70
2022/04/27 02:30:09;;;;;;;200.77;33.63;;;;;;;;;;4937726;28;20815;-70
2022/04/27 02:32:36;;;;;;;94.43;16.70;;;;;;;;;;4958934;28;20707;-70
2022/04/27 02:35:02;;;;;;;120.17;22.40;;;;;;;;;;4953656;28;20214;-70
2022/04/27 02:37:28;;;;;;;58.50;10.83;;;;;;;;;;4963070;28;20271;-70
2022/04/27 02:39:54;;;;;;;141.57;23.97;;;;;;;;;;4959275;28;20692;-70
2022/04/27 02:42:20;;;;;;;92.97;16.20;;;;;;;;;;4958755;28;20214;-71
2022/04/27 02:44:45;;;;;;;77.13;13.30;;;;;;;;;;4960189;28;20218;-71
2022/04/27 02:47:11;;;;;;;116.97;20.77;;;;;;;;;;4958714;28;20313;-71
2022/04/27 02:52:23;;;;;;;110.10;19.03;;;;;;;;;;4958165;28;20280;-70
2022/04/27 02:54:49;;;;;;;97.50;16.30;;;;;;;;;;4941858;28;20414;-71
2022/04/27 02:57:16;;;;;;;58.03;10.67;;;;;;;;;;4956014;28;20664;-71
2022/04/27 02:59:42;;;;;;;103.53;17.50;;;;;;;;;;4943892;28;20293;-71
2022/04/27 03:02:07;;;;;;;168.97;28.37;;;;;;;;;;4956737;28;20220;-71
2022/04/27 03:04:33;;;;;;;99.17;16.67;;;;;;;;;;4958285;28;20214;-71
2022/04/27 03:07:00;;;;;;;169.50;29.83;;;;;;;;;;4955827;28;20214;-71
2022/04/27 03:09:26;;;;;;;85.53;14.93;;;;;;;;;;4961104;28;20309;-71
2022/04/27 03:11:52;;;;;;;103.27;17.43;;;;;;;;;;4959938;28;20206;-72
2022/04/27 03:14:19;;;;;;;88.20;14.93;;;;;;;;;;4940929;28;20206;-71
2022/04/27 03:16:45;;;;;;;117.67;20.20;;;;;;;;;;4957150;28;20218;-71
2022/04/27 03:19:11;;;;;;;116.57;19.93;;;;;;;;;;4940778;28;20697;-71
2022/04/27 03:21:37;;;;;;;81.93;14.53;;;;;;;;;;4952735;28;20273;-71
2022/04/27 03:24:03;;;;;;;125.50;21.83;;;;;;;;;;4954384;28;20294;-71
2022/04/27 03:26:29;;;;;;;54.40;9.60;;;;;;;;;;4960697;28;20215;-71
2022/04/27 03:28:55;;;;;;;87.23;15.50;;;;;;;;;;4941613;28;20228;-71
2022/04/27 03:31:21;;;;;;;71.10;12.57;;;;;;;;;;4942213;28;20221;-71
2022/04/27 03:33:47;;;;;;;66.73;11.83;;;;;;;;;;4962731;28;20237;-71
2022/04/27 03:36:13;;;;;;;41.67;7.67;;;;;;;;;;4957027;28;20187;-71
2022/04/27 03:38:39;;;;;;;52.90;9.33;;;;;;;;;;4965388;28;20217;-71
2022/04/27 03:41:05;;;;;;;155.33;27.10;;;;;;;;;;4959322;28;20218;-71
2022/04/27 03:43:31;;;;;;;106.00;19.10;;;;;;;;;;4940316;28;20706;-71
2022/04/27 03:45:57;;;;;;;105.33;20.77;;;;;;;;;;4956847;28;20225;-71
2022/04/27 03:48:23;;;;;;;106.23;19.97;;;;;;;;;;4955477;28;20206;-71
2022/04/27 03:50:49;;;;;;;117.33;21.67;;;;;;;;;;4958301;28;20660;-71
2022/04/27 03:53:15;;;;;;;87.57;16.97;;;;;;;;;;4960803;28;20229;-72
2022/04/27 03:55:41;;;;;;;89.20;16.87;;;;;;;;;;4958621;28;20221;-70
2022/04/27 03:58:07;;;;;;;158.70;30.17;;;;;;;;;;4954994;28;20222;-71
2022/04/27 04:00:33;;;;;;;80.43;15.50;;;;;;;;;;4958086;28;20191;-71
2022/04/27 04:03:00;;;;;;;179.53;35.37;;;;;;;;;;4958466;28;20836;-71
2022/04/27 04:05:26;;;;;;;92.10;17.20;;;;;;;;;;4956962;28;20229;-70
2022/04/27 04:07:52;;;;;;;74.80;14.10;;;;;;;;;;4942570;28;20754;-71
2022/04/27 04:10:18;;;;;;;152.50;26.63;;;;;;;;;;4957573;28;20273;-71
2022/04/27 04:12:45;;;;;;;94.17;17.67;;;;;;;;;;4958765;28;20297;-71
2022/04/27 04:15:11;;;;;;;136.97;24.37;;;;;;;;;;4939657;28;20338;-71
2022/04/27 04:17:40;;;;;;;127.50;22.90;;;;;;;;;;4956413;28;20258;-70
2022/04/27 04:20:06;;;;;;;127.83;23.77;;;;;;;;;;4956610;28;20262;-70
2022/04/27 04:22:32;;;;;;;93.87;16.97;;;;;;;;;;4950484;28;20237;-71
2022/04/27 04:30:28;;;;;;;99.73;18.13;;;;;;;;;;4954727;28;20193;-71
2022/04/27 04:32:54;;;;;;;112.73;19.97;;;;;;;;;;4956785;28;20190;-71
2022/04/27 04:35:20;;;;;;;131.47;23.43;;;;;;;;;;4954777;28;20222;-71
2022/04/27 04:37:46;;;;;;;117.83;21.40;;;;;;;;;;4953777;28;20207;-71
2022/04/27 04:40:12;;;;;;;161.13;28.43;;;;;;;;;;4955009;28;20217;-71
2022/04/27 04:42:38;;;;;;;115.43;20.77;;;;;;;;;;4950553;28;20210;-71
2022/04/27 04:45:04;;;;;;;182.10;33.20;;;;;;;;;;4958730;28;20187;-71
2022/04/27 04:47:30;;;;;;;102.77;19.10;;;;;;;;;;4938839;28;20301;-72
2022/04/27 04:49:56;;;;;;;158.33;28.33;;;;;;;;;;4951873;28;20416;-71
2022/04/27 04:52:22;;;;;;;83.17;15.07;;;;;;;;;;4953284;28;20729;-71
2022/04/27 04:54:48;;;;;;;105.37;19.53;;;;;;;;;;4961002;28;20369;-71
2022/04/27 04:57:14;;;;;;;94.23;17.33;;;;;;;;;;4958594;28;20248;-71
2022/04/27 04:59:40;;;;;;;78.47;14.20;;;;;;;;;;4963919;28;20309;-71
2022/04/27 05:02:07;;;;;;;148.27;27.30;;;;;;;;;;4964728;28;20210;-71
2022/04/27 05:04:33;;;;;;;75.97;13.90;;;;;;;;;;4962229;28;20334;-70
2022/04/27 05:06:59;;;;;;;118.50;21.83;;;;;;;;;;4959978;28;20716;-70
2022/04/27 05:09:25;;;;;;;113.00;19.97;;;;;;;;;;4963378;28;20210;-70
2022/04/27 05:11:51;;;;;;;93.93;16.33;;;;;;;;;;4964200;28;20293;-71
2022/04/27 05:14:16;;;;;;;88.77;16.03;;;;;;;;;;4942896;28;20222;-71
2022/04/27 05:16:42;;;;;;;139.87;24.53;;;;;;;;;;4958089;28;20206;-68
2022/04/27 05:19:08;;;;;;;133.17;24.57;;;;;;;;;;4961828;28;20222;-67
2022/04/27 05:21:34;;;;;;;88.13;16.23;;;;;;;;;;4953343;28;20345;-68
2022/04/27 05:24:00;;;;;;;125.27;24.67;;;;;;;;;;4953060;28;20221;-68
2022/04/27 05:26:26;;;;;;;166.50;28.73;;;;;;;;;;4953347;28;20222;-67
2022/04/27 05:31:56;;;;;;;169.00;31.73;;;;;;;;;;4955628;28;20276;-68
2022/04/27 05:34:22;;;;;;;150.33;28.27;;;;;;;;;;4952312;28;20264;-67
2022/04/27 05:36:48;;;;;;;103.27;18.67;;;;;;;;;;4943169;28;20245;-67
2022/04/27 05:39:14;;;;;;;110.03;20.03;;;;;;;;;;4958117;28;20186;-67
2022/04/27 05:41:41;;;;;;;120.27;21.83;;;;;;;;;;4955963;28;20757;-67
2022/04/27 05:44:09;;;;;;;137.27;27.00;;;;;;;;;;4953731;28;20221;-67
2022/04/27 05:46:39;;;;;;;96.93;17.37;;;;;;;;;;4939435;28;20249;-66
2022/04/27 05:49:05;;;;;;;154.47;28.83;;;;;;;;;;4956558;28;20545;-66
2022/04/27 05:51:31;;;;;;;78.30;15.17;;;;;;;;;;4953169;28;22335;-66
2022/04/27 05:53:57;;;;;;;143.30;25.50;;;;;;;;;;4957723;28;20281;-67
2022/04/27 05:56:24;;;;;;;78.60;14.63;;;;;;;;;;4954596;28;20304;-67
2022/04/27 05:58:50;;;;;;;146.97;26.43;;;;;;;;;;4949798;28;20213;-66
2022/04/27 06:01:16;;;;;;;164.77;30.67;;;;;;;;;;4948626;28;20258;-67
2022/04/27 06:03:42;;;;;;;116.40;20.83;;;;;;;;;;4953348;28;20237;-67
2022/04/27 06:06:08;;;;;;;184.67;33.30;;;;;;;;;;4949831;28;20191;-67
2022/04/27 06:08:34;;;;;;;89.03;16.73;;;;;;;;;;4953662;28;20229;-67
2022/04/27 06:11:00;;;;;;;144.30;26.87;;;;;;;;;;4950616;28;21000;-67
2022/04/27 06:13:26;;;;;;;125.60;23.03;;;;;;;;;;4950104;28;20681;-67
2022/04/27 06:15:52;;;;;;;136.17;24.53;;;;;;;;;;4956624;28;20272;-67
2022/04/27 06:18:18;;;;;;;137.30;25.43;;;;;;;;;;4947752;28;20584;-66
2022/04/27 06:20:44;;;;;;;138.57;24.67;;;;;;;;;;4942911;28;20226;-66
2022/04/27 06:23:10;;;;;;;165.60;29.77;;;;;;;;;;4944992;28;20233;-70
2022/04/27 06:25:39;;;;;;;137.73;25.30;;;;;;;;;;4950668;28;20218;-77
2022/04/27 06:28:05;;;;;;;164.37;31.00;;;;;;;;;;4949207;28;23285;-68
2022/04/27 06:30:35;;;;;;;129.23;24.07;;;;;;;;;;4955415;28;20175;-75
2022/04/27 06:33:01;;;;;;;234.13;42.70;;;;;;;;;;4950623;28;20190;-69
2022/04/27 06:35:27;;;;;;;159.33;28.67;;;;;;;;;;4930468;28;20218;-69
2022/04/27 06:37:53;;;;;;;173.70;31.97;;;;;;;;;;4932249;28;20218;-71
2022/04/27 06:40:19;;;;;;;153.33;28.33;;;;;;;;;;4957255;28;20218;-70
2022/04/27 06:42:45;;;;;;;91.17;17.30;;;;;;;;;;4950765;28;20267;-71
2022/04/27 06:45:11;;;;;;;148.57;28.67;;;;;;;;;;4937091;28;20194;-71
2022/04/27 06:47:37;;;;;;;110.90;20.87;;;;;;;;;;4955957;28;20572;-72
2022/04/27 06:50:03;;;;;;;197.20;36.57;;;;;;;;;;4951038;28;20218;-71
2022/04/27 06:52:29;;;;;;;104.27;19.50;;;;;;;;;;4951359;28;20297;-67
2022/04/27 06:54:55;;;;;;;97.63;18.93;;;;;;;;;;4937495;28;20313;-75
2022/04/27 06:57:21;;;;;;;97.77;18.00;;;;;;;;;;4954469;28;20784;-68
2022/04/27 06:59:47;;;;;;;192.33;35.73;;;;;;;;;;4945357;28;20222;-62
2022/04/27 07:02:15;;;;;;;101.47;19.03;;;;;;;;;;4955347;28;20229;-62
2022/04/27 07:04:43;;;;;;;151.93;28.87;;;;;;;;;;4953211;28;20206;-62
2022/04/27 07:07:09;;;;;;;155.90;32.13;;;;;;;;;;4952228;28;20223;-62
2022/04/27 07:09:36;;;;;;;128.63;24.67;;;;;;;;;;4949828;28;20218;-62
2022/04/27 07:12:02;;;;;;;187.30;37.63;;;;;;;;;;4950140;28;20455;-68
2022/04/27 07:14:28;;;;;;;126.47;24.47;;;;;;;;;;4956403;28;20217;-67
2022/04/27 07:16:54;;;;;;;129.63;24.40;;;;;;;;;;4952620;28;20616;-68
2022/04/27 07:19:20;;;;;;;191.63;35.40;;;;;;;;;;4945933;28;20210;-69
2022/04/27 07:21:46;;;;;;;100.20;19.30;;;;;;;;;;4956288;28;20246;-65
2022/04/27 07:24:12;;;;;;;138.93;25.97;;;;;;;;;;4948327;28;20754;-68
2022/04/27 07:26:38;;;;;;;117.97;23.17;;;;;;;;;;4949574;28;20211;-68
2022/04/27 07:29:05;;;;;;;244.83;50.47;;;;;;;;;;4937313;28;21213;-72
2022/04/27 07:31:32;;;;;;;140.67;27.13;;;;;;;;;;4945782;28;20333;-68
2022/04/27 07:33:58;;;;;;;91.23;19.30;;;;;;;;;;4954183;28;20293;-67
2022/04/27 07:36:24;;;;;;;190.73;37.57;;;;;;;;;;4946364;28;20186;-68
2022/04/27 07:38:50;;;;;;;101.87;19.90;;;;;;;;;;4952117;28;20182;-67
2022/04/27 07:41:16;;;;;;;158.37;31.37;;;;;;;;;;4959873;28;21198;-67
2022/04/27 07:43:42;;;;;;;105.07;20.03;;;;;;;;;;4954339;28;20217;-67
2022/04/27 07:46:09;;;;;;;145.20;28.80;;;;;;;;;;4952202;28;20724;-69
2022/04/27 07:48:35;;;;;;;68.03;14.43;;;;;;;;;;4951149;28;20217;-68
2022/04/27 07:51:01;;;;;;;305.60;62.83;;;;;;;;;;4951963;28;20202;-68
2022/04/27 07:53:28;;;;;;;193.57;37.23;;;;;;;;;;4940963;28;20308;-68
2022/04/27 07:55:54;;;;;;;136.50;26.87;;;;;;;;;;4954531;28;20711;-66
2022/04/27 07:58:19;;;;;;;116.03;23.10;;;;;;;;;;4956425;28;20228;-67
2022/04/27 08:00:46;;;;;;;44.43;9.73;;;;;;;;;;4957540;28;20214;-68
2022/04/27 08:03:12;;;;;;;113.70;23.80;;;;;;;;;;4957715;28;20182;-68
2022/04/27 08:05:38;;;;;;;128.93;24.80;;;;;;;;;;4955993;28;20580;-68
2022/04/27 08:08:04;;;;;;;131.73;26.83;;;;;;;;;;4955298;28;20237;-67
2022/04/27 08:10:30;;;;;;;104.40;20.27;;;;;;;;;;4955766;28;20253;-68
2022/04/27 08:12:56;;;;;;;229.47;44.53;;;;;;;;;;4955020;28;20218;-67
2022/04/27 08:15:24;;;;;;;124.63;24.80;;;;;;;;;;4947752;28;20254;-68
2022/04/27 08:17:51;;;;;;;75.47;15.97;;;;;;;;;;4954997;28;20182;-70
2022/04/27 08:23:03;;;;;;;192.33;40.77;;;;;;;;;;4948980;28;20239;-69
2022/04/27 08:25:29;;;;;;;81.97;16.73;;;;;;;;;;4953466;28;20301;-69
2022/04/27 08:27:55;;;;;;;123.30;26.87;;;;;;;;;;4953756;28;20302;-68
2022/04/27 08:30:21;;;;;;;222.47;45.50;;;;;;;;;;4953316;28;20191;-68
2022/04/27 08:32:47;;;;;;;152.77;30.07;;;;;;;;;;4953902;28;20707;-67
2022/04/27 08:35:13;;;;;;;142.70;29.77;;;;;;;;;;4948298;28;21055;-66
2022/04/27 08:37:39;;;;;;;228.97;46.33;;;;;;;;;;4946838;28;20218;-69
2022/04/27 08:40:05;;;;;;;171.70;37.73;;;;;;;;;;4953861;28;20217;-69
2022/04/27 08:42:31;;;;;;;138.33;28.20;;;;;;;;;;4954709;28;20205;-72
2022/04/27 08:44:57;;;;;;;146.83;29.67;;;;;;;;;;4954846;28;20182;-66
2022/04/27 08:47:24;;;;;;;177.83;35.77;;;;;;;;;;4952471;28;20221;-66
2022/04/27 08:49:49;;;;;;;107.13;20.97;;;;;;;;;;4949706;28;20269;-68
2022/04/27 08:52:17;;;;;;;110.33;22.90;;;;;;;;;;4955917;28;20245;-68
2022/04/27 08:54:44;;;;;;;182.33;38.37;;;;;;;;;;4956143;28;20252;-68
2022/04/27 08:57:10;;;;;;;206.05;43.13;;;;;;;;;;4949889;28;20285;-68
2022/04/27 08:59:36;;;;;;;246.77;50.83;;;;;;;;;;4954490;28;20297;-67
2022/04/27 09:02:21;;;;;;;212.33;44.07;;;;;;;;;;4949284;28;20231;-68
2022/04/27 09:05:05;;;;;;;90.70;19.03;;;;;;;;;;4960307;28;20626;-67
2022/04/27 09:07:35;;;;;;;62.03;13.37;;;;;;;;;;4960533;28;20214;-68
2022/04/27 09:10:01;;;;;;;143.73;33.58;;;;;;;;;;4953232;28;20732;-67
2022/04/27 09:12:27;;;;;;;212.10;48.20;;;;;;;;;;4942795;28;20321;-67
2022/04/27 09:14:58;;;;;;;197.17;46.37;;;;;;;;;;4947764;28;20195;-68
2022/04/27 09:23:00;;;;;;;190.60;49.00;;;;;;;;;;4942598;28;20253;-68
2022/04/27 09:25:36;;;;;;;178.80;40.28;;;;;;;;;;4930619;28;20227;-68
2022/04/27 09:28:03;;;;;;;110.63;26.73;;;;;;;;;;4949556;28;20233;-68
2022/04/27 09:30:30;;;;;;;153.00;35.25;;;;;;;;;;4960322;28;20253;-68
2022/04/27 09:32:57;;;;;;;196.25;44.50;;;;;;;;;;4941117;28;20233;-68
2022/04/27 09:35:34;;;;;;;87.80;19.77;;;;;;;;;;4932190;28;20692;-68
2022/04/27 09:38:19;;;;;;;190.50;47.87;;;;;;;;;;4941866;28;20228;-68
2022/04/27 09:40:49;;;;;;;167.17;36.83;;;;;;;;;;4951353;28;20233;-67
2022/04/27 09:43:15;;;;;;;55.17;13.03;;;;;;;;;;4959276;28;20217;-67
2022/04/27 09:45:45;;;;;;;64.97;14.40;;;;;;;;;;4961617;28;20675;-67
2022/04/27 09:48:18;;;;;;;119.27;26.10;;;;;;;;;;4965368;28;20238;-66
2022/04/27 09:50:58;;;;;;;76.93;17.33;;;;;;;;;;4958732;28;20226;-67
2022/04/27 09:53:25;;;;;;;154.30;34.67;;;;;;;;;;4946007;28;20225;-67
2022/04/27 09:55:52;;;;;;;190.57;44.75;;;;;;;;;;4958513;28;20636;-67
2022/04/27 09:58:19;;;;;;;196.77;44.38;;;;;;;;;;4940128;28;22169;-67
2022/04/27 10:00:45;;;;;;;71.13;19.85;;;;;;;;;;4951118;28;20228;-67
2022/04/27 10:03:16;;;;;;;111.45;34.38;;;;;;;;;;4964324;28;20196;-67
2022/04/27 10:05:42;;;;;;;106.20;45.08;;;;;;;;;;4965943;28;20708;-67
2022/04/27 10:08:09;;;;;;;214.27;76.72;;;;;;;;;;4943893;28;20242;-67
2022/04/27 10:10:37;;;;;;;199.32;63.60;;;;;;;;;;4924047;28;20361;-68
2022/04/27 10:13:04;;;;;;;110.30;35.95;;;;;;;;;;4951499;28;20218;-67
2022/04/27 10:15:31;;;;;;;199.80;68.00;;;;;;;;;;4919951;28;20185;-68
2022/04/27 10:17:57;;;;;;;150.57;52.30;;;;;;;;;;4918658;28;20174;-71
2022/04/27 10:20:30;;;;;;;159.50;59.25;;;;;;;;;;4950255;28;20253;-71
2022/04/27 10:23:14;;;;;;;216.73;69.53;;;;;;;;;;4929742;28;20641;-75
2022/04/27 10:25:41;;;;;;;100.47;32.17;;;;;;;;;;4951476;28;20330;-67
2022/04/27 10:28:18;;;;;;;205.48;78.47;;;;;;;;;;4946679;28;20207;-66
2022/04/27 10:30:44;;;;;;;85.78;51.53;;;;;;;;;;4951707;28;20217;-67
2022/04/27 10:33:10;;;;;;;123.65;67.78;;;;;;;;;;4948367;28;20187;-68
2022/04/27 10:35:36;;;;;;;90.22;29.77;;;;;;;;;;4947250;28;20606;-68
2022/04/27 10:38:05;;;;;;;213.80;98.95;;;;;;;;;;4946367;28;20464;-65
2022/04/27 10:40:32;;;;;;;136.75;57.42;;;;;;;;;;4949354;28;20213;-67
2022/04/27 10:43:14;;;;;;;206.57;94.13;;;;;;;;;;4950449;28;20802;-68
2022/04/27 10:45:48;;;;;;;187.20;94.45;;;;;;;;;;4952653;28;20186;-68
2022/04/27 10:48:36;;;;;;;220.48;114.18;;;;;;;;;;4947852;28;20210;-68
2022/04/27 10:51:07;;;;;;;184.88;111.47;;;;;;;;;;4944446;28;20231;-68
2022/04/27 10:53:39;;;;;;;202.68;126.60;;;;;;;;;;4959377;28;20211;-67
2022/04/27 10:56:21;;;;;;;283.20;159.52;;;;;;;;;;4955902;28;20902;-68
2022/04/27 10:58:47;;;;;;;232.98;132.43;;;;;;;;;;4955371;28;20277;-67
2022/04/27 11:01:17;;;;;;;251.70;142.55;;;;;;;;;;4951814;28;20245;-67
2022/04/27 11:03:43;;;;;;;200.55;126.28;;;;;;;;;;4954814;28;20214;-67
2022/04/27 11:06:11;;;;;;;214.00;136.20;;;;;;;;;;4958404;28;20826;-68
2022/04/27 11:08:43;;;;;;;214.82;104.25;;;;;;;;;;4953410;28;21678;-67
2022/04/27 11:11:09;;;;;;;212.52;125.43;;;;;;;;;;4952510;28;20244;-67
2022/04/27 11:13:36;;;;;;;145.85;102.82;;;;;;;;;;4946535;28;20206;-67
2022/04/27 11:16:09;;;;;;;192.05;129.05;;;;;;;;;;4962058;28;20692;-67
2022/04/27 11:18:57;;;;;;;205.45;134.10;;;;;;;;;;4953759;28;20307;-67
2022/04/27 11:21:24;;;;;;;203.48;126.43;;;;;;;;;;4953897;28;20210;-66
2022/04/27 11:23:50;;;;;;;158.93;115.00;;;;;;;;;;4960959;28;20194;-66
2022/04/27 11:26:16;;;;;;;150.75;101.93;;;;;;;;;;4960834;28;20718;-66
2022/04/27 11:28:43;;;;;;;118.68;89.90;;;;;;;;;;4965491;28;20234;-66
2022/04/27 11:31:09;;;;;;;163.70;103.05;;;;;;;;;;4966008;28;20714;-66
2022/04/27 11:33:40;;;;;;;131.75;88.78;;;;;;;;;;4966305;28;20178;-66
2022/04/27 11:36:06;;;;;;;177.00;98.72;;;;;;;;;;4962666;28;20245;-66
2022/04/27 11:38:37;;;;;;;134.00;90.45;;;;;;;;;;4968963;28;20297;-66
2022/04/27 11:41:03;;;;;;;161.32;100.10;;;;;;;;;;4947885;28;20215;-67
2022/04/27 11:43:31;;;;;;;100.22;73.80;;;;;;;;;;4967267;28;20269;-67
2022/04/27 11:45:58;;;;;;;147.57;86.78;;;;;;;;;;4966834;28;20680;-66
2022/04/27 11:48:28;;;;;;;96.18;70.88;;;;;;;;;;4968090;28;20241;-66
2022/04/27 11:50:56;;;;;;;194.27;93.00;;;;;;;;;;4957605;28;20281;-67
2022/04/27 11:53:22;;;;;;;91.68;59.08;;;;;;;;;;4959267;28;20214;-67
2022/04/27 11:55:49;;;;;;;135.30;75.70;;;;;;;;;;4958687;28;20210;-69
2022/04/27 11:58:22;;;;;;;106.15;65.38;;;;;;;;;;4942635;28;20214;-69
2022/04/27 12:00:49;;;;;;;133.57;72.50;;;;;;;;;;4957668;28;20600;-70
2022/04/27 12:03:15;;;;;;;105.45;63.25;;;;;;;;;;4958891;28;20178;-69
2022/04/27 12:05:41;;;;;;;108.28;58.95;;;;;;;;;;4964197;28;20221;-69
2022/04/27 12:08:11;;;;;;;116.30;73.10;;;;;;;;;;4963325;28;20214;-67
2022/04/27 12:10:42;;;;;;;111.70;93.82;;;;;;;;;;4962614;28;20787;-69
2022/04/27 12:13:09;;;;;;;225.57;139.60;;;;;;;;;;4956066;28;20234;-69
2022/04/27 12:15:36;;;;;;;123.75;102.20;;;;;;;;;;4954669;28;20181;-68
2022/04/27 12:18:03;;;;;;;218.00;129.23;;;;;;;;;;4960378;28;20204;-67
2022/04/27 12:20:33;;;;;;;152.23;105.82;;;;;;;;;;4939286;28;20237;-69
2022/04/27 12:23:10;;;;;;;213.95;124.72;;;;;;;;;;4948118;28;20296;-67
2022/04/27 12:25:37;;;;;;;294.52;133.13;;;;;;;;;;4952939;28;20221;-68
2022/04/27 12:28:04;;;;;;;178.32;105.15;;;;;;;;;;4953284;28;20206;-68
2022/04/27 12:30:30;;;;;;;128.68;93.10;;;;;;;;;;4950971;28;20192;-67
2022/04/27 12:32:57;;;;;;;141.30;97.78;;;;;;;;;;4953827;28;20665;-69
2022/04/27 12:38:17;;;;;;;237.18;146.02;;;;;;;;;;4955646;28;20867;-68
2022/04/27 12:40:43;;;;;;;314.48;168.52;;;;;;;;;;4953915;28;20226;-68
2022/04/27 12:43:09;;;;;;;454.17;236.18;;;;;;;;;;4952166;28;20260;-65
2022/04/27 12:45:36;;;;;;;360.08;200.70;;;;;;;;;;4952296;28;20264;-68
2022/04/27 12:48:03;;;;;;;428.70;228.20;;;;;;;;;;4950440;28;21096;-65
2022/04/27 12:50:29;;;;;;;362.48;199.93;;;;;;;;;;4949543;28;20719;-67
2022/04/27 12:53:11;;;;;;;307.95;179.18;;;;;;;;;;4953233;28;20700;-68
2022/04/27 12:55:38;;;;;;;329.80;182.02;;;;;;;;;;4952335;28;20314;-68
2022/04/27 12:58:04;;;;;;;384.10;207.02;;;;;;;;;;4954616;28;20632;-67
2022/04/27 13:00:36;;;;;;;349.13;191.75;;;;;;;;;;4957401;28;20225;-67
2022/04/27 13:03:02;;;;;;;405.45;212.15;;;;;;;;;;4958144;28;20179;-67
2022/04/27 13:05:28;;;;;;;358.92;198.98;;;;;;;;;;4959591;28;20272;-67
2022/04/27 13:07:54;;;;;;;342.67;184.98;;;;;;;;;;4954132;28;20302;-67
2022/04/27 13:13:08;;;;;;;385.02;211.85;;;;;;;;;;4958246;28;20742;-67
2022/04/27 13:15:34;;;;;;;310.85;177.43;;;;;;;;;;4956437;28;20785;-67
2022/04/27 13:18:00;;;;;;;339.98;186.07;;;;;;;;;;4960478;28;20177;-67
2022/04/27 13:20:26;;;;;;;310.80;174.38;;;;;;;;;;4963369;28;20206;-67
2022/04/27 13:22:52;;;;;;;337.58;186.48;;;;;;;;;;4962544;28;20963;-67
2022/04/27 13:25:18;;;;;;;304.13;175.68;;;;;;;;;;4964020;28;20218;-67
2022/04/27 13:27:44;;;;;;;330.92;183.38;;;;;;;;;;4965425;28;20297;-67
2022/04/27 13:30:10;;;;;;;356.17;199.15;;;;;;;;;;4959390;28;20273;-67
2022/04/27 13:32:36;;;;;;;302.48;170.27;;;;;;;;;;4946937;28;20277;-67
2022/04/27 13:35:03;;;;;;;285.75;172.55;;;;;;;;;;4964259;28;20243;-67
2022/04/27 13:37:29;;;;;;;145.63;113.88;;;;;;;;;;4963486;28;20209;-68
2022/04/27 13:39:56;;;;;;;94.07;60.72;;;;;;;;;;4965244;28;20297;-67
2022/04/27 13:42:22;;;;;;;90.30;35.28;;;;;;;;;;4965085;28;20252;-67
2022/04/27 13:44:48;;;;;;;69.97;31.85;;;;;;;;;;4963780;28;20186;-67
2022/04/27 13:47:14;;;;;;;69.45;31.70;;;;;;;;;;4965474;28;20206;-67
2022/04/27 13:49:40;;;;;;;90.38;33.22;;;;;;;;;;4965787;28;20785;-67
2022/04/27 13:52:06;;;;;;;167.48;61.05;;;;;;;;;;4960187;28;20237;-67
2022/04/27 13:54:33;;;;;;;105.35;60.90;;;;;;;;;;4966447;28;20195;-67
2022/04/27 13:56:59;;;;;;;150.18;108.25;;;;;;;;;;4960319;28;20210;-67
2022/04/27 13:59:25;;;;;;;128.48;114.95;;;;;;;;;;4964390;28;20890;-67
2022/04/27 14:01:51;;;;;;;184.85;140.73;;;;;;;;;;4961375;28;20221;-67
2022/04/27 14:04:17;;;;;;;126.00;112.47;;;;;;;;;;4963640;28;20261;-67
2022/04/27 14:06:43;;;;;;;158.30;124.97;;;;;;;;;;4962288;28;20700;-67
2022/04/27 14:09:08;;;;;;;176.10;139.63;;;;;;;;;;4962348;28;20659;-67
2022/04/27 14:14:20;;;;;;;178.82;143.02;;;;;;;;;;4962098;28;20742;-67
2022/04/27 14:19:33;;;;;;;185.15;146.55;;;;;;;;;;4962336;28;20312;-67
2022/04/27 14:21:59;;;;;;;288.42;193.05;;;;;;;;;;4964372;28;20206;-67
2022/04/27 14:24:25;;;;;;;235.63;171.18;;;;;;;;;;4959702;28;20205;-68
2022/04/27 14:26:51;;;;;;;276.15;183.73;;;;;;;;;;4958389;28;20191;-67
2022/04/27 14:29:17;;;;;;;362.33;227.70;;;;;;;;;;4951083;28;20330;-66
2022/04/27 14:31:42;;;;;;;134.98;103.82;;;;;;;;;;4957502;28;20592;-67
2022/04/27 14:34:08;;;;;;;226.38;145.35;;;;;;;;;;4962358;28;20221;-68
2022/04/27 14:36:34;;;;;;;125.13;68.57;;;;;;;;;;4961627;28;20195;-67
2022/04/27 14:39:00;;;;;;;138.32;44.17;;;;;;;;;;4963132;28;20455;-67